Time;durP1;ratioP1;P1;durP2;ratioP2;P2;SDS_P1;SDS_P2;PMS_P1;PMS_P2;Temp;Humidity;BMP_temperature;BMP_pressure;BME280_temperature;BME280_humidity;BME280_pressure;Samples;Min_cycle;Max_cycle;Signal;HPM_P1;HPM_P2
2022/03/16 00:03:19;;;;;;;31.98;22.67;;;;;;;8.33;66.67;98106.41;12895075;23;20001;-79
2022/03/16 00:08:40;;;;;;;31.20;23.48;;;;;;;8.27;66.42;98112.22;12901525;23;20019;-82
2022/03/16 00:14:01;;;;;;;30.95;23.75;;;;;;;8.22;66.32;98115.97;12902978;23;20020;-79
2022/03/16 00:19:23;;;;;;;30.73;24.02;;;;;;;8.18;66.83;98112.84;12902755;23;20009;-83
2022/03/16 00:24:44;;;;;;;31.50;23.85;;;;;;;8.10;66.63;98123.28;12881924;23;20025;-82
2022/03/16 00:30:05;;;;;;;28.70;23.05;;;;;;;8.02;66.73;98139.31;12882095;23;20032;-81
2022/03/16 00:35:26;;;;;;;27.92;21.02;;;;;;;8.03;66.38;98135.25;12902761;23;20024;-82
2022/03/16 00:40:47;;;;;;;27.75;21.45;;;;;;;8.01;66.55;98137.84;12903010;23;20020;-83
2022/03/16 00:46:09;;;;;;;26.85;19.75;;;;;;;7.98;66.86;98131.38;12881773;23;20031;-81
2022/03/16 00:51:30;;;;;;;25.83;19.95;;;;;;;7.96;66.52;98136.75;12881256;23;20032;-77
2022/03/16 00:56:51;;;;;;;24.95;19.17;;;;;;;7.95;66.71;98140.84;12882010;23;20001;-82
2022/03/16 01:02:13;;;;;;;23.23;17.42;;;;;;;7.93;66.90;98148.28;12923179;23;20004;-82
2022/03/16 01:07:35;;;;;;;23.33;17.42;;;;;;;7.93;66.74;98159.41;12922936;23;20036;-80
2022/03/16 01:12:56;;;;;;;21.63;16.77;;;;;;;7.91;66.67;98170.34;12881613;23;20000;-79
2022/03/16 01:18:17;;;;;;;19.88;16.35;;;;;;;7.86;66.69;98174.81;12901278;23;20000;-81
2022/03/16 01:23:41;;;;;;;24.27;17.17;;;;;;;7.87;66.86;98167.22;12881284;23;20008;-79
2022/03/16 01:29:03;;;;;;;22.52;17.67;;;;;;;7.84;66.93;98174.66;12881476;23;20016;-79
2022/03/16 01:34:24;;;;;;;21.05;16.15;;;;;;;7.80;67.10;98173.56;12881065;23;20016;-82
2022/03/16 01:39:46;;;;;;;23.88;16.38;;;;;;;7.82;66.64;98182.09;12880822;23;20017;-80
2022/03/16 01:45:07;;;;;;;20.85;17.35;;;;;;;7.80;66.86;98185.41;12880925;23;20024;-77
2022/03/16 01:50:30;;;;;;;22.98;17.63;;;;;;;7.82;66.70;98188.41;12880788;23;20004;-81
2022/03/16 01:55:53;;;;;;;24.70;18.52;;;;;;;7.80;66.86;98190.97;12902073;23;20027;-80
2022/03/16 02:01:15;;;;;;;22.63;18.50;;;;;;;7.78;67.02;98192.84;12901333;23;20063;-78
2022/03/16 02:06:36;;;;;;;22.52;17.25;;;;;;;7.80;66.78;98201.38;12858733;23;20036;-80
2022/03/16 02:11:57;;;;;;;24.13;18.05;;;;;;;7.85;66.86;98214.31;12880152;23;20012;-80
2022/03/16 02:17:18;;;;;;;21.27;15.90;;;;;;;7.86;66.80;98213.00;12859327;23;20008;-81
2022/03/16 02:22:59;;;;;;;19.38;15.57;;;;;;;7.87;66.84;98220.78;12859293;23;20000;-81
2022/03/16 02:28:22;;;;;;;22.65;17.05;;;;;;;7.83;67.11;98228.78;12880115;23;20027;-83
2022/03/16 02:33:43;;;;;;;21.88;17.77;;;;;;;7.85;66.84;98231.00;12880108;23;20016;-82
2022/03/16 02:39:05;;;;;;;22.42;17.75;;;;;;;7.85;67.22;98240.06;12900687;23;20052;-80
2022/03/16 02:44:26;;;;;;;19.25;16.00;;;;;;;7.85;66.83;98253.97;12879428;23;20016;-81
2022/03/16 02:49:48;;;;;;;20.48;17.02;;;;;;;7.81;67.35;98259.16;12879269;23;20001;-80
2022/03/16 02:55:09;;;;;;;21.80;17.55;;;;;;;7.84;67.07;98260.09;12859215;23;20029;-79
2022/03/16 03:00:30;;;;;;;21.15;16.73;;;;;;;7.85;67.12;98269.91;12900087;23;20057;-77
2022/03/16 03:05:52;;;;;;;18.73;15.45;;;;;;;7.77;67.03;98278.28;12864588;23;20005;-79
2022/03/16 03:11:13;;;;;;;18.80;16.40;;;;;;;7.75;67.30;98292.72;12879355;23;20076;-80
2022/03/16 03:16:34;;;;;;;19.42;15.38;;;;;;;7.77;67.09;98292.16;12899694;23;20000;-78
2022/03/16 03:21:55;;;;;;;20.08;16.27;;;;;;;7.82;66.78;98304.38;12920077;23;20012;-79
2022/03/16 03:27:16;;;;;;;19.83;15.98;;;;;;;7.81;67.23;98316.78;12878700;23;20031;-78
2022/03/16 03:32:37;;;;;;;19.60;16.13;;;;;;;7.83;67.42;98320.50;12878631;23;20056;-80
2022/03/16 03:37:58;;;;;;;19.55;15.68;;;;;;;7.76;67.20;98329.59;12878515;23;20085;-77
2022/03/16 03:43:19;;;;;;;22.10;16.25;;;;;;;7.73;67.21;98336.28;12899096;23;20008;-78
2022/03/16 04:26:28;;;;;;;23.38;18.13;;;;;;;7.61;67.41;98399.84;12673371;23;20011;-79
2022/03/16 04:31:49;;;;;;;23.40;18.95;;;;;;;7.58;67.84;98409.31;12744197;22;20031;-81
2022/03/16 04:37:11;;;;;;;22.45;17.67;;;;;;;7.54;67.63;98425.63;12765300;22;20068;-77
2022/03/16 04:42:33;;;;;;;24.50;18.40;;;;;;;7.49;67.58;98432.09;12857474;23;20001;-78
2022/03/16 04:47:55;;;;;;;24.38;18.25;;;;;;;7.44;67.85;98433.78;12836281;23;20028;-80
2022/03/16 04:53:16;;;;;;;26.38;18.17;;;;;;;7.45;67.64;98443.59;12837044;23;20021;-79
2022/03/16 04:58:38;;;;;;;24.58;18.42;;;;;;;7.44;67.66;98453.22;12798938;23;20013;-79
2022/03/16 05:03:59;;;;;;;22.25;17.85;;;;;;;7.43;67.87;98459.31;12819451;23;20009;-79
2022/03/16 05:09:21;;;;;;;24.77;19.25;;;;;;;7.28;67.95;98470.44;12839653;23;20001;-81
2022/03/16 05:14:42;;;;;;;23.73;18.40;;;;;;;7.17;67.92;98472.28;12860357;23;20001;-82
2022/03/16 05:20:04;;;;;;;28.00;21.17;;;;;;;7.08;68.31;98470.06;12860134;23;20004;-79
2022/03/16 05:25:27;;;;;;;28.08;21.73;;;;;;;6.96;68.30;98482.84;12860266;23;20008;-80
2022/03/16 05:30:48;;;;;;;29.05;21.02;;;;;;;6.94;68.73;98485.41;12881395;23;20012;-83
2022/03/16 05:36:09;;;;;;;26.10;19.77;;;;;;;6.92;68.65;98490.75;12859996;23;20017;-80
2022/03/16 05:41:31;;;;;;;27.35;21.38;;;;;;;6.98;68.51;98498.94;12842237;23;20040;-79
2022/03/16 05:46:54;;;;;;;29.42;20.95;;;;;;;7.05;68.64;98496.16;12818582;23;20060;-84
2022/03/16 05:52:16;;;;;;;28.95;21.95;;;;;;;7.23;68.63;98504.69;12839470;23;20005;-82
2022/03/16 05:57:39;;;;;;;31.75;23.80;;;;;;;7.34;68.59;98518.22;12839122;23;20001;-80
2022/03/16 06:03:01;;;;;;;29.80;22.25;;;;;;;7.56;68.06;98534.16;12815812;23;20005;-79
2022/03/16 06:08:22;;;;;;;31.08;22.13;;;;;;;8.21;67.97;98544.84;12817268;23;20004;-83
2022/03/16 06:13:43;;;;;;;27.25;20.88;;;;;;;9.13;67.24;98551.53;12859035;23;20021;-79
2022/03/16 06:19:04;;;;;;;31.17;22.35;;;;;;;10.37;64.98;98568.75;12878959;23;20031;-81
2022/03/16 06:24:27;;;;;;;32.20;23.75;;;;;;;11.11;63.27;98565.63;12878510;23;20012;-83
2022/03/16 06:29:48;;;;;;;29.58;21.98;;;;;;;11.78;63.50;98574.91;12856594;23;20078;-84
2022/03/16 06:35:10;;;;;;;29.33;21.60;;;;;;;13.77;61.30;98585.72;12853390;23;20017;-84
2022/03/16 06:40:31;;;;;;;28.33;22.73;;;;;;;15.15;57.01;98577.94;12817365;23;20025;-83
2022/03/16 06:45:52;;;;;;;25.80;21.58;;;;;;;16.09;56.09;98584.38;12854984;23;20011;-85
2022/03/16 06:57:37;;;;;;;26.67;21.80;;;;;;;18.08;51.49;98605.28;12819935;22;20050;-79
2022/03/16 07:03:00;;;;;;;24.33;19.45;;;;;;;17.33;51.04;98616.84;12826777;23;20023;-77
2022/03/16 07:08:54;;;;;;;28.27;21.30;;;;;;;14.55;51.59;98626.09;12799198;22;20109;31
2022/03/16 07:20:49;;;;;;;30.75;21.65;;;;;;;13.68;52.54;98646.16;12793875;22;20013;31
2022/03/16 07:32:26;;;;;;;26.77;22.80;;;;;;;16.87;53.03;98646.72;12861267;22;20100;-85
2022/03/16 07:37:47;;;;;;;22.33;19.15;;;;;;;19.81;48.23;98661.81;12819394;23;20013;-84
2022/03/16 07:43:08;;;;;;;22.83;19.85;;;;;;;19.92;46.66;98655.25;12860991;23;20424;-85
2022/03/16 07:48:29;;;;;;;24.85;19.00;;;;;;;20.27;45.31;98671.69;12817180;23;20019;-83
2022/03/16 07:53:50;;;;;;;22.42;19.30;;;;;;;19.13;42.09;98681.28;12878095;23;20017;-83
2022/03/16 07:59:13;;;;;;;21.80;18.55;;;;;;;16.19;44.93;98682.81;12855701;23;20040;-83
2022/03/16 08:04:33;;;;;;;24.10;19.73;;;;;;;14.36;46.90;98699.94;12809613;23;20462;-77
2022/03/16 08:10:58;;;;;;;21.42;18.02;;;;;;;12.88;49.31;98716.16;12775876;22;20025;31
2022/03/16 08:16:20;;;;;;;24.83;20.52;;;;;;;12.19;50.46;98721.44;12733880;23;20034;-83
2022/03/16 08:21:41;;;;;;;24.33;20.17;;;;;;;12.02;50.96;98725.06;12712262;23;20104;-80
2022/03/16 08:27:02;;;;;;;25.55;20.52;;;;;;;11.81;50.93;98719.22;12708566;23;20074;-83
2022/03/16 08:32:23;;;;;;;24.55;19.90;;;;;;;11.44;51.10;98719.09;12729450;23;20042;-84
2022/03/16 08:37:44;;;;;;;26.70;20.02;;;;;;;11.09;51.96;98729.56;12710750;23;20014;-83
2022/03/16 08:43:05;;;;;;;24.25;18.85;;;;;;;11.22;52.01;98748.06;12710960;23;20029;-84
2022/03/16 08:48:31;;;;;;;23.42;18.23;;;;;;;11.73;52.40;98744.44;12750690;23;20022;-81
2022/03/16 08:53:52;;;;;;;24.85;20.00;;;;;;;12.64;52.06;98742.34;12751225;23;20025;-83
2022/03/16 08:59:34;;;;;;;24.48;19.05;;;;;;;13.98;50.16;98751.38;12752416;22;20016;31
2022/03/16 09:04:55;;;;;;;22.30;18.63;;;;;;;13.66;49.85;98758.22;12773420;23;20013;-81
2022/03/16 09:10:16;;;;;;;22.77;19.02;;;;;;;13.75;50.02;98765.91;12796211;23;20005;-80
2022/03/16 09:15:37;;;;;;;26.92;18.85;;;;;;;13.45;49.86;98762.38;12775587;23;20022;-85
2022/03/16 09:21:01;;;;;;;24.80;18.85;;;;;;;13.33;49.98;98766.38;12795594;23;20005;-84
2022/03/16 09:26:22;;;;;;;23.50;18.80;;;;;;;13.21;50.55;98768.28;12775174;23;20022;-86
2022/03/16 09:31:44;;;;;;;24.80;18.55;;;;;;;13.33;50.26;98775.53;12793729;23;20029;-82
2022/03/16 09:37:05;;;;;;;20.88;17.75;;;;;;;13.17;50.04;98785.53;12769898;23;20021;-85
2022/03/16 09:42:29;;;;;;;24.35;18.80;;;;;;;12.52;50.54;98798.19;12766765;23;20046;-86
2022/03/16 09:47:50;;;;;;;24.27;19.23;;;;;;;12.06;51.86;98800.19;12806330;23;20022;-82
2022/03/16 09:53:13;;;;;;;24.88;19.08;;;;;;;11.94;51.80;98809.09;12805234;23;20029;-82
2022/03/16 09:58:36;;;;;;;26.27;20.25;;;;;;;12.06;51.83;98803.72;12745639;23;20025;-84
2022/03/16 10:03:59;;;;;;;25.48;19.27;;;;;;;12.30;51.84;98804.88;12788154;23;20030;-83
2022/03/16 10:15:05;;;;;;;25.08;20.88;;;;;;;13.25;50.22;98802.25;12789780;23;20006;-84
2022/03/16 10:26:51;;;;;;;23.85;18.60;;;;;;;22.26;43.94;98798.44;12857848;23;20139;-82
2022/03/16 10:32:12;;;;;;;20.20;17.80;;;;;;;23.81;37.54;98806.75;12817218;23;20023;-84
2022/03/16 10:37:37;;;;;;;20.35;18.17;;;;;;;21.41;37.57;98796.47;12861020;23;20454;-83
2022/03/16 10:48:37;;;;;;;19.98;17.60;;;;;;;22.45;39.60;98802.69;12806671;23;20017;-82
2022/03/16 10:54:02;;;;;;;21.73;17.23;;;;;;;26.51;33.84;98808.28;12839702;23;20020;-83
2022/03/16 10:59:26;;;;;;;17.95;15.98;;;;;;;23.42;32.78;98806.19;12817982;23;20012;-85
2022/03/16 11:04:47;;;;;;;18.85;16.65;;;;;;;23.53;32.20;98804.38;12808057;23;20327;-86
2022/03/16 11:10:08;;;;;;;17.35;15.55;;;;;;;22.67;31.94;98797.09;12837962;23;20016;-86
2022/03/16 11:15:30;;;;;;;19.88;16.70;;;;;;;22.34;33.39;98812.25;12837070;23;20016;-83
2022/03/16 11:20:52;;;;;;;18.73;16.85;;;;;;;22.40;32.56;98801.09;12816871;23;20021;-82
2022/03/16 11:26:34;;;;;;;18.55;16.65;;;;;;;21.57;31.46;98787.16;12818037;23;20027;-81
2022/03/16 11:32:15;;;;;;;18.75;15.93;;;;;;;20.57;32.30;98794.25;12837509;23;20335;-82
2022/03/16 11:37:38;;;;;;;17.50;15.50;;;;;;;21.01;32.56;98794.75;12817190;23;20335;-83
2022/03/16 11:43:06;;;;;;;19.00;16.52;;;;;;;20.24;32.83;98798.41;12837012;23;20012;-84
2022/03/16 11:48:34;;;;;;;19.48;16.13;;;;;;;20.80;32.63;98796.69;12857521;23;20013;-84
2022/03/16 11:54:01;;;;;;;17.77;15.88;;;;;;;21.00;31.38;98790.44;12879794;23;20013;-84
2022/03/16 11:59:27;;;;;;;17.98;16.08;;;;;;;20.21;31.74;98790.47;12880314;23;20021;-85
2022/03/16 12:04:57;;;;;;;17.80;15.50;;;;;;;19.36;32.66;98790.66;12872875;23;20424;-83
2022/03/16 12:10:21;;;;;;;17.85;15.40;;;;;;;19.05;33.53;98779.91;12862377;23;20451;-83
2022/03/16 12:15:43;;;;;;;17.83;16.02;;;;;;;19.92;33.21;98788.41;12862101;23;20021;-83
2022/03/16 12:21:06;;;;;;;21.58;16.73;;;;;;;19.91;32.30;98784.13;12820613;23;20017;-85
2022/03/16 12:26:28;;;;;;;16.60;14.77;;;;;;;19.20;32.79;98772.13;12760276;23;20032;-84
2022/03/16 12:31:49;;;;;;;18.20;16.08;;;;;;;19.28;32.79;98766.88;12778469;23;20017;-83
2022/03/16 12:37:14;;;;;;;19.25;15.25;;;;;;;18.91;33.08;98761.47;12757833;23;20032;-84
2022/03/16 12:42:34;;;;;;;20.73;15.68;;;;;;;19.09;33.36;98770.88;12777937;23;20013;-84
2022/03/16 12:48:10;;;;;;;20.00;16.05;;;;;;;18.90;32.65;98769.22;12778458;23;20052;-84
2022/03/16 12:53:45;;;;;;;20.35;15.40;;;;;;;17.60;33.60;98756.59;12780298;23;20367;-84
2022/03/16 12:59:08;;;;;;;17.80;14.70;;;;;;;17.13;35.07;98768.03;12758228;23;20052;-84
2022/03/16 13:04:29;;;;;;;15.27;13.65;;;;;;;17.11;34.40;98765.84;12791092;23;20020;-85
2022/03/16 13:09:50;;;;;;;18.02;14.13;;;;;;;16.43;34.95;98763.19;12757105;23;20017;-85
2022/03/16 13:15:10;;;;;;;15.88;14.18;;;;;;;16.07;35.67;98763.75;12778027;23;20387;-83
2022/03/16 13:20:31;;;;;;;16.80;13.82;;;;;;;16.17;36.28;98762.31;12780734;23;20016;-83
2022/03/16 13:26:06;;;;;;;18.40;14.23;;;;;;;17.09;35.77;98765.72;12846309;23;20024;-84
2022/03/16 13:31:30;;;;;;;15.05;12.77;;;;;;;17.81;35.03;98753.56;12801815;23;20016;-86
2022/03/16 13:36:51;;;;;;;18.50;13.48;;;;;;;18.16;34.20;98755.44;12801538;23;20016;-83
2022/03/16 13:42:12;;;;;;;16.95;14.63;;;;;;;17.72;34.12;98766.50;12841524;23;20016;-85
2022/03/16 13:47:35;;;;;;;15.27;13.68;;;;;;;16.81;34.62;98764.78;12821867;23;20066;-83
2022/03/16 13:52:56;;;;;;;17.83;14.30;;;;;;;16.22;35.89;98768.94;12842201;23;20032;-81
2022/03/16 13:58:37;;;;;;;16.35;14.50;;;;;;;15.80;36.53;98767.00;12863336;22;20513;-79
2022/03/16 14:04:18;;;;;;;17.40;14.60;;;;;;;15.61;37.35;98777.09;12773465;23;20029;-77
2022/03/16 14:09:42;;;;;;;17.95;15.82;;;;;;;15.53;37.09;98779.34;12791737;23;20104;-79
2022/03/16 14:15:16;;;;;;;17.40;14.55;;;;;;;15.70;37.48;98778.34;12856931;23;20015;-78
2022/03/16 14:20:41;;;;;;;17.25;14.60;;;;;;;15.90;37.45;98765.56;12825830;23;20021;-80
2022/03/16 14:26:17;;;;;;;17.50;14.90;;;;;;;16.06;37.19;98768.66;12837279;23;20440;-78
2022/03/16 14:31:47;;;;;;;19.35;14.43;;;;;;;15.81;37.54;98769.22;12756956;23;20032;-79
2022/03/16 14:37:18;;;;;;;18.35;15.55;;;;;;;15.36;37.07;98771.22;12884467;23;20024;-79
2022/03/16 14:42:39;;;;;;;17.92;14.85;;;;;;;14.87;37.88;98773.66;12852773;23;20004;-77
2022/03/16 14:48:43;;;;;;;20.08;15.93;;;;;;;14.48;38.31;98765.41;12737502;22;20063;31
2022/03/16 15:00:30;;;;;;;19.10;16.48;;;;;;;13.91;39.08;98769.13;12795890;23;20044;-84
2022/03/16 15:05:52;;;;;;;25.40;16.42;;;;;;;13.79;39.47;98773.84;12782378;23;20028;-83
2022/03/16 15:11:14;;;;;;;21.70;17.10;;;;;;;13.79;39.95;98780.22;12775799;23;20028;-82
2022/03/16 15:16:35;;;;;;;20.15;16.52;;;;;;;14.09;39.72;98776.03;12795762;23;20013;-85
2022/03/16 15:21:57;;;;;;;19.27;16.33;;;;;;;14.26;39.56;98767.38;12734846;23;20013;-81
2022/03/16 15:27:18;;;;;;;21.00;16.67;;;;;;;14.39;39.97;98777.41;12754633;23;20002;-82
2022/03/16 15:32:40;;;;;;;24.42;18.65;;;;;;;14.26;39.67;98773.00;12795697;23;20002;-82
2022/03/16 15:38:02;;;;;;;25.02;20.15;;;;;;;13.97;40.04;98767.47;12753815;23;20005;-82
2022/03/16 15:43:23;;;;;;;23.85;19.65;;;;;;;13.62;40.54;98775.53;12812998;23;20017;-85
2022/03/16 15:48:44;;;;;;;24.88;19.60;;;;;;;13.34;40.83;98773.47;12792055;23;20021;-84
2022/03/16 15:54:05;;;;;;;24.25;19.63;;;;;;;13.00;41.41;98772.38;12790192;23;20017;-81
2022/03/16 15:59:29;;;;;;;23.92;18.45;;;;;;;12.80;41.44;98766.00;12771334;23;20104;-82
2022/03/16 16:04:50;;;;;;;;;;;;;;;12.60;43.42;98772.88;12770360;23;20072;-81
2022/03/16 16:10:13;;;;;;;28.52;19.95;;;;;;;12.59;42.10;98782.59;12787693;23;19917;-83
2022/03/16 16:15:36;;;;;;;26.08;19.42;;;;;;;12.55;42.41;98790.69;12809383;23;20017;-83
2022/03/16 16:21:00;;;;;;;23.75;19.50;;;;;;;12.55;42.44;98785.09;12770594;23;20091;-82
2022/03/16 16:26:21;;;;;;;26.45;20.05;;;;;;;12.43;43.03;98796.09;12789374;23;20030;-84
2022/03/16 16:31:46;;;;;;;26.55;20.70;;;;;;;12.31;42.81;98801.50;12789757;23;20053;-84
2022/03/16 16:37:07;;;;;;;26.67;20.90;;;;;;;12.21;43.59;98799.97;12807344;23;20024;-82
2022/03/16 16:48:07;;;;;;;31.77;22.30;;;;;;;11.89;44.11;98801.72;12769386;23;20018;-86
2022/03/16 16:53:29;;;;;;;29.92;21.83;;;;;;;11.66;43.85;98796.38;12778810;23;20068;-80
2022/03/16 16:58:51;;;;;;;31.92;22.92;;;;;;;11.47;44.69;98796.22;12754446;23;20036;-80
2022/03/16 17:04:12;;;;;;;29.73;21.77;;;;;;;11.34;44.71;98802.16;12752557;23;20045;-81
2022/03/16 17:09:33;;;;;;;29.15;20.42;;;;;;;11.16;45.37;98804.94;12787141;23;20024;-81
2022/03/16 17:14:53;;;;;;;26.73;21.17;;;;;;;10.99;45.53;98820.94;12755243;23;20340;-78
2022/03/16 17:20:18;;;;;;;28.23;20.95;;;;;;;10.88;45.87;98827.72;12774242;23;20025;-80
2022/03/16 17:25:38;;;;;;;30.23;19.48;;;;;;;10.84;46.22;98827.41;12763192;23;20014;-78
2022/03/16 17:30:59;;;;;;;29.17;20.35;;;;;;;10.88;46.40;98828.47;12759299;23;20392;-76
2022/03/16 17:36:20;;;;;;;26.52;19.70;;;;;;;10.88;46.88;98831.25;12721921;23;20018;-77
2022/03/16 17:47:20;;;;;;;26.30;20.48;;;;;;;10.95;46.96;98842.94;12755559;23;19997;-82
2022/03/16 17:52:41;;;;;;;25.92;20.23;;;;;;;10.86;47.12;98842.28;12739887;23;20104;-79
2022/03/16 17:58:01;;;;;;;26.95;21.08;;;;;;;10.83;47.53;98857.38;12753901;23;20025;-79
2022/03/16 18:03:22;;;;;;;30.75;24.70;;;;;;;10.84;47.84;98855.34;12783048;23;20026;-82
2022/03/16 18:08:43;;;;;;;27.17;22.10;;;;;;;10.88;47.89;98861.25;12849042;23;20012;-80
2022/03/16 18:14:04;;;;;;;26.55;20.65;;;;;;;10.93;48.03;98865.13;12756305;23;20348;-78
2022/03/16 18:19:24;;;;;;;27.30;20.75;;;;;;;10.89;48.05;98863.47;12823944;23;20005;-85
2022/03/16 18:24:45;;;;;;;28.88;21.45;;;;;;;10.92;48.08;98861.59;12801596;23;20313;-79
2022/03/16 18:30:06;;;;;;;30.63;24.02;;;;;;;10.88;49.17;98869.63;12823573;23;20013;-78
2022/03/16 18:35:27;;;;;;;29.88;22.63;;;;;;;10.86;48.87;98859.03;12752438;23;20017;-77
2022/03/16 18:40:48;;;;;;;30.63;24.70;;;;;;;10.81;49.13;98864.88;12768895;23;20024;-76
2022/03/16 18:46:12;;;;;;;33.03;25.55;;;;;;;10.78;49.24;98877.16;12813996;23;20012;-79
2022/03/16 18:52:12;;;;;;;39.47;28.95;;;;;;;10.73;49.96;98875.34;12796527;23;20017;-79
2022/03/16 18:57:17;;;;;;;37.67;29.33;;;;;;;10.69;50.05;98884.09;12782564;23;20348;-79
2022/03/16 19:02:39;;;;;;;43.88;31.15;;;;;;;10.62;51.15;98881.38;12781362;23;20017;-80
2022/03/16 19:08:01;;;;;;;42.03;30.80;;;;;;;10.57;51.36;98892.19;12793961;23;20028;-80
2022/03/16 19:19:02;;;;;;;39.22;30.02;;;;;;;10.48;51.49;98897.66;12821949;23;20077;-80
2022/03/16 19:24:22;;;;;;;49.53;31.70;;;;;;;10.42;52.69;98894.31;12818233;23;20348;-79
2022/03/16 19:29:45;;;;;;;44.33;31.45;;;;;;;10.27;52.91;98884.72;12794911;23;20069;-81
2022/03/16 19:35:09;;;;;;;42.40;31.35;;;;;;;10.01;54.65;98880.34;12779742;23;20348;-78
2022/03/16 19:40:30;;;;;;;;;;;;;;;9.82;54.95;98877.25;12795656;23;20017;-78
2022/03/16 19:45:51;;;;;;;45.58;30.13;;;;;;;9.65;55.53;98872.31;12788462;23;20236;-79
2022/03/16 19:51:13;;;;;;;38.72;29.25;;;;;;;9.52;54.45;98864.16;12810677;23;20020;-80
2022/03/16 19:56:39;;;;;;;43.45;28.95;;;;;;;9.44;55.03;98880.91;12801136;23;20067;-79
2022/03/16 20:02:03;;;;;;;40.20;29.33;;;;;;;9.34;55.29;98871.63;12804374;23;20017;-77
2022/03/16 20:07:24;;;;;;;42.15;28.80;;;;;;;9.26;54.73;98873.69;12737505;23;20013;-76
2022/03/16 20:12:45;;;;;;;37.17;28.23;;;;;;;9.18;55.08;98865.34;12777567;23;20021;-77
2022/03/16 20:18:06;;;;;;;37.58;27.05;;;;;;;9.15;55.52;98876.84;12758024;23;20021;-77
2022/03/16 20:23:30;;;;;;;39.28;28.35;;;;;;;9.15;55.14;98876.84;12779388;23;20428;-76
2022/03/16 20:28:51;;;;;;;41.20;29.27;;;;;;;9.14;55.41;98869.78;12808008;23;20328;-79
2022/03/16 20:34:13;;;;;;;40.10;28.38;;;;;;;9.29;55.36;98880.94;12743930;23;20087;-78
2022/03/16 20:39:34;;;;;;;40.58;29.80;;;;;;;9.34;55.50;98876.47;12761373;23;20017;-76
2022/03/16 20:44:55;;;;;;;43.10;30.73;;;;;;;9.26;55.79;98881.28;12761409;23;20017;-78
2022/03/16 20:50:16;;;;;;;40.17;30.30;;;;;;;9.09;56.24;98890.97;12761402;23;20021;-77
2022/03/16 20:55:37;;;;;;;42.72;30.30;;;;;;;8.98;56.47;98896.19;12776681;23;20025;-80
2022/03/16 21:00:58;;;;;;;46.05;31.35;;;;;;;8.98;56.29;98896.19;12819695;23;20033;-79
2022/03/16 21:06:19;;;;;;;44.90;31.00;;;;;;;9.04;56.22;98896.72;12763147;23;20008;-82
2022/03/16 21:11:39;;;;;;;44.70;32.63;;;;;;;9.05;57.02;98909.34;12778298;23;20029;-81
2022/03/16 21:17:02;;;;;;;41.83;31.30;;;;;;;9.06;57.75;98896.91;12777357;23;20001;-81
2022/03/16 21:22:25;;;;;;;41.28;31.00;;;;;;;9.06;56.71;98889.28;12777856;23;20017;-79
2022/03/16 21:27:50;;;;;;;40.75;30.77;;;;;;;8.89;56.67;98894.69;12779215;23;20021;-84
2022/03/16 21:33:13;;;;;;;40.30;30.60;;;;;;;8.72;57.20;98892.44;12798027;23;20017;-78
2022/03/16 21:38:36;;;;;;;41.58;29.90;;;;;;;8.72;57.21;98903.59;12776159;23;20020;-77
2022/03/16 21:44:20;;;;;;;42.23;30.83;;;;;;;8.67;57.25;98898.19;12796296;23;20020;-78
2022/03/16 21:49:43;;;;;;;41.40;30.48;;;;;;;8.60;57.11;98902.47;12762812;23;20005;-77
2022/03/16 21:55:04;;;;;;;44.22;31.27;;;;;;;8.58;57.00;98896.69;12797508;23;20005;-77
2022/03/16 22:00:36;;;;;;;41.15;30.08;;;;;;;8.53;57.09;98905.97;12795602;23;20024;-80
2022/03/16 22:05:58;;;;;;;41.08;30.55;;;;;;;8.36;57.40;98905.72;12827618;23;20017;-78
2022/03/16 22:11:19;;;;;;;42.95;30.52;;;;;;;8.21;57.06;98903.63;12797415;23;20052;-81
2022/03/16 22:16:41;;;;;;;41.58;30.13;;;;;;;8.07;57.68;98902.25;12818079;23;20000;-82
2022/03/16 22:22:06;;;;;;;40.50;30.20;;;;;;;7.99;57.96;98910.56;12818352;23;20024;-80
2022/03/16 22:27:26;;;;;;;41.20;30.25;;;;;;;7.99;57.58;98924.47;12798773;23;20019;-81
2022/03/16 22:32:47;;;;;;;45.08;31.33;;;;;;;7.99;57.74;98930.78;12838238;23;20001;-83
2022/03/16 22:38:08;;;;;;;40.85;30.77;;;;;;;7.90;57.83;98905.53;12817368;23;20024;-82
2022/03/16 22:43:29;;;;;;;38.08;29.45;;;;;;;7.82;57.83;98908.28;12859103;23;20011;-82
2022/03/16 22:48:50;;;;;;;41.15;30.48;;;;;;;7.77;58.01;98906.41;12817772;23;20012;-84
2022/03/16 22:54:12;;;;;;;38.70;28.95;;;;;;;7.77;57.85;98908.44;12817509;23;20000;-82
2022/03/16 22:59:32;;;;;;;40.45;29.00;;;;;;;7.72;57.86;98930.28;12797961;23;20052;-81
2022/03/16 23:04:53;;;;;;;40.90;30.08;;;;;;;7.80;58.24;98926.78;12796786;23;20009;-82
2022/03/16 23:10:14;;;;;;;42.85;31.25;;;;;;;7.81;57.89;98915.13;12837769;23;20005;-82
2022/03/16 23:15:35;;;;;;;38.30;29.38;;;;;;;7.82;57.96;98907.53;12837329;23;20024;-81
2022/03/16 23:20:56;;;;;;;41.45;30.20;;;;;;;7.86;57.86;98894.03;12837675;23;20019;-81
2022/03/16 23:26:17;;;;;;;39.22;29.75;;;;;;;7.86;58.01;98892.00;12837531;23;20009;-83
2022/03/16 23:31:38;;;;;;;44.13;30.83;;;;;;;7.87;58.10;98879.56;12816479;23;20020;-82
2022/03/16 23:36:59;;;;;;;41.35;30.55;;;;;;;7.87;57.91;98874.00;12816736;23;20040;-79
2022/03/16 23:42:20;;;;;;;37.60;29.67;;;;;;;7.89;57.94;98868.63;12857474;23;20012;-80
2022/03/16 23:47:41;;;;;;;41.15;30.95;;;;;;;7.85;58.21;98865.50;12795652;23;20024;-82
2022/03/16 23:53:02;;;;;;;42.92;30.67;;;;;;;7.83;58.22;98859.00;12795985;23;20072;-80
2022/03/16 23:58:23;;;;;;;42.80;32.17;;;;;;;7.82;57.68;98854.72;12844730;23;20012;-83
